sensor_id;sensor_type;location;lat;lon;timestamp;pressure;altitude;pressure_sealevel;temperature;humidity
21547;BME280;41275;51.912;4.388;2023-04-07T00:02:38;101521.97;;;14.83;54.26
21547;BME280;41275;51.912;4.388;2023-04-07T00:07:59;101525.97;;;14.68;54.73
21547;BME280;41275;51.912;4.388;2023-04-07T00:13:21;101514.53;;;14.44;54.72
21547;BME280;41275;51.912;4.388;2023-04-07T00:18:42;101515.50;;;14.27;54.74
21547;BME280;41275;51.912;4.388;2023-04-07T00:24:03;101516.06;;;14.17;54.92
21547;BME280;41275;51.912;4.388;2023-04-07T00:29:24;101518.84;;;14.10;55.08
21547;BME280;41275;51.912;4.388;2023-04-07T00:34:45;101515.16;;;13.99;55.26
21547;BME280;41275;51.912;4.388;2023-04-07T00:40:07;101521.75;;;13.97;55.27
21547;BME280;41275;51.912;4.388;2023-04-07T00:45:28;101518.63;;;13.88;55.36
21547;BME280;41275;51.912;4.388;2023-04-07T00:50:50;101523.59;;;13.85;55.54
21547;BME280;41275;51.912;4.388;2023-04-07T00:56:11;101533.09;;;13.81;55.80
21547;BME280;41275;51.912;4.388;2023-04-07T01:01:39;101525.81;;;13.76;55.64
21547;BME280;41275;51.912;4.388;2023-04-07T01:07:14;101517.31;;;13.67;55.55
21547;BME280;41275;51.912;4.388;2023-04-07T01:12:43;101523.25;;;13.69;55.51
21547;BME280;41275;51.912;4.388;2023-04-07T01:18:12;101526.81;;;13.63;55.65
21547;BME280;41275;51.912;4.388;2023-04-07T01:29:44;101526.94;;;13.57;55.91
21547;BME280;41275;51.912;4.388;2023-04-07T01:35:15;101533.63;;;13.59;55.57
21547;BME280;41275;51.912;4.388;2023-04-07T01:40:38;101529.81;;;13.55;55.71
21547;BME280;41275;51.912;4.388;2023-04-07T01:46:00;101530.28;;;13.52;55.90
21547;BME280;41275;51.912;4.388;2023-04-07T01:51:22;101534.91;;;13.57;55.91
21547;BME280;41275;51.912;4.388;2023-04-07T01:56:44;101535.13;;;13.55;56.15
21547;BME280;41275;51.912;4.388;2023-04-07T02:02:05;101536.75;;;13.56;56.35
21547;BME280;41275;51.912;4.388;2023-04-07T02:07:37;101541.41;;;13.61;55.89
21547;BME280;41275;51.912;4.388;2023-04-07T02:13:00;101531.56;;;13.61;55.72
21547;BME280;41275;51.912;4.388;2023-04-07T02:18:24;101525.19;;;13.62;56.19
21547;BME280;41275;51.912;4.388;2023-04-07T02:23:47;101541.41;;;13.72;55.96
21547;BME280;41275;51.912;4.388;2023-04-07T02:29:08;101536.91;;;13.85;56.23
21547;BME280;41275;51.912;4.388;2023-04-07T02:34:29;101538.53;;;13.86;55.73
21547;BME280;41275;51.912;4.388;2023-04-07T02:39:51;101544.78;;;13.91;55.97
21547;BME280;41275;51.912;4.388;2023-04-07T02:45:12;101536.09;;;13.96;55.96
21547;BME280;41275;51.912;4.388;2023-04-07T02:50:33;101540.50;;;14.02;55.84
21547;BME280;41275;51.912;4.388;2023-04-07T02:55:54;101532.84;;;14.17;55.74
21547;BME280;41275;51.912;4.388;2023-04-07T03:01:15;101542.31;;;14.37;55.71
21547;BME280;41275;51.912;4.388;2023-04-07T03:06:37;101536.53;;;14.52;55.76
21547;BME280;41275;51.912;4.388;2023-04-07T03:11:58;101538.84;;;14.60;55.70
21547;BME280;41275;51.912;4.388;2023-04-07T03:17:19;101539.88;;;14.70;55.46
21547;BME280;41275;51.912;4.388;2023-04-07T03:22:40;101544.91;;;14.84;55.45
21547;BME280;41275;51.912;4.388;2023-04-07T03:28:01;101553.34;;;14.92;55.23
21547;BME280;41275;51.912;4.388;2023-04-07T03:33:23;101556.22;;;15.03;55.09
21547;BME280;41275;51.912;4.388;2023-04-07T03:38:45;101561.72;;;15.13;54.85
21547;BME280;41275;51.912;4.388;2023-04-07T03:44:07;101553.97;;;15.11;54.42
21547;BME280;41275;51.912;4.388;2023-04-07T03:49:28;101567.03;;;15.13;54.58
21547;BME280;41275;51.912;4.388;2023-04-07T03:54:51;101555.81;;;15.11;54.44
21547;BME280;41275;51.912;4.388;2023-04-07T04:00:12;101562.03;;;15.16;54.13
21547;BME280;41275;51.912;4.388;2023-04-07T04:05:33;101557.84;;;15.20;54.40
21547;BME280;41275;51.912;4.388;2023-04-07T04:10:55;101565.03;;;15.20;54.17
21547;BME280;41275;51.912;4.388;2023-04-07T04:16:16;101570.09;;;15.33;54.34
21547;BME280;41275;51.912;4.388;2023-04-07T04:21:37;101570.44;;;15.37;53.94
21547;BME280;41275;51.912;4.388;2023-04-07T04:26:58;101577.50;;;15.31;53.73
21547;BME280;41275;51.912;4.388;2023-04-07T04:32:19;101583.91;;;15.30;53.65
21547;BME280;41275;51.912;4.388;2023-04-07T04:37:41;101586.25;;;15.27;53.67
21547;BME280;41275;51.912;4.388;2023-04-07T04:43:02;101595.38;;;15.31;53.57
21547;BME280;41275;51.912;4.388;2023-04-07T04:48:26;101587.25;;;15.37;53.51
21547;BME280;41275;51.912;4.388;2023-04-07T04:53:48;101607.84;;;15.42;53.18
21547;BME280;41275;51.912;4.388;2023-04-07T04:59:09;101602.09;;;15.33;52.78
21547;BME280;41275;51.912;4.388;2023-04-07T05:04:30;101600.28;;;15.22;53.12
21547;BME280;41275;51.912;4.388;2023-04-07T05:09:52;101599.53;;;15.10;52.88
21547;BME280;41275;51.912;4.388;2023-04-07T05:15:13;101599.97;;;15.18;53.14
21547;BME280;41275;51.912;4.388;2023-04-07T05:20:35;101606.19;;;15.24;53.32
21547;BME280;41275;51.912;4.388;2023-04-07T05:25:56;101606.50;;;15.28;52.81
21547;BME280;41275;51.912;4.388;2023-04-07T05:31:17;101611.97;;;15.33;52.95
21547;BME280;41275;51.912;4.388;2023-04-07T05:36:39;101618.19;;;15.38;52.71
21547;BME280;41275;51.912;4.388;2023-04-07T05:42:00;101623.72;;;15.49;52.71
21547;BME280;41275;51.912;4.388;2023-04-07T05:47:22;101621.06;;;15.49;52.71
21547;BME280;41275;51.912;4.388;2023-04-07T05:52:44;101623.59;;;15.43;52.53
21547;BME280;41275;51.912;4.388;2023-04-07T05:58:05;101632.63;;;15.54;52.33
21547;BME280;41275;51.912;4.388;2023-04-07T06:03:26;101631.81;;;15.54;52.24
21547;BME280;41275;51.912;4.388;2023-04-07T06:08:48;101639.81;;;15.54;52.03
21547;BME280;41275;51.912;4.388;2023-04-07T06:14:09;101643.53;;;15.53;52.03
21547;BME280;41275;51.912;4.388;2023-04-07T06:19:31;101641.19;;;15.56;51.98
21547;BME280;41275;51.912;4.388;2023-04-07T06:24:52;101652.56;;;15.52;51.85
21547;BME280;41275;51.912;4.388;2023-04-07T06:30:14;101648.69;;;15.59;51.65
21547;BME280;41275;51.912;4.388;2023-04-07T06:35:36;101653.00;;;15.60;51.65
21547;BME280;41275;51.912;4.388;2023-04-07T06:40:57;101660.66;;;15.68;51.54
21547;BME280;41275;51.912;4.388;2023-04-07T06:46:18;101670.69;;;15.78;51.15
21547;BME280;41275;51.912;4.388;2023-04-07T06:51:39;101663.16;;;15.75;51.27
21547;BME280;41275;51.912;4.388;2023-04-07T06:57:01;101675.31;;;15.83;51.03
21547;BME280;41275;51.912;4.388;2023-04-07T07:02:22;101683.97;;;15.90;50.52
21547;BME280;41275;51.912;4.388;2023-04-07T07:07:43;101692.56;;;15.92;50.75
21547;BME280;41275;51.912;4.388;2023-04-07T07:13:05;101694.34;;;16.03;49.91
21547;BME280;41275;51.912;4.388;2023-04-07T07:18:26;101705.41;;;15.95;49.63
21547;BME280;41275;51.912;4.388;2023-04-07T07:23:47;101686.72;;;15.95;49.72
21547;BME280;41275;51.912;4.388;2023-04-07T07:29:08;101700.19;;;16.00;49.42
21547;BME280;41275;51.912;4.388;2023-04-07T07:34:30;101715.06;;;15.96;48.93
21547;BME280;41275;51.912;4.388;2023-04-07T07:39:51;101718.13;;;16.05;48.96
21547;BME280;41275;51.912;4.388;2023-04-07T07:45:13;101722.81;;;16.14;48.73
21547;BME280;41275;51.912;4.388;2023-04-07T07:50:34;101730.69;;;16.21;48.60
21547;BME280;41275;51.912;4.388;2023-04-07T07:55:55;101733.69;;;16.25;48.93
21547;BME280;41275;51.912;4.388;2023-04-07T08:01:16;101737.50;;;16.12;48.52
21547;BME280;41275;51.912;4.388;2023-04-07T08:06:38;101738.03;;;16.14;49.11
21547;BME280;41275;51.912;4.388;2023-04-07T08:11:59;101745.59;;;16.34;48.36
21547;BME280;41275;51.912;4.388;2023-04-07T08:17:20;101749.72;;;16.41;48.13
21547;BME280;41275;51.912;4.388;2023-04-07T08:22:41;101749.41;;;16.38;47.70
21547;BME280;41275;51.912;4.388;2023-04-07T08:28:03;101758.06;;;16.45;47.03
21547;BME280;41275;51.912;4.388;2023-04-07T08:33:24;101766.91;;;16.62;46.59
21547;BME280;41275;51.912;4.388;2023-04-07T08:38:46;101775.16;;;16.61;46.15
21547;BME280;41275;51.912;4.388;2023-04-07T08:44:07;101780.09;;;16.69;45.95
21547;BME280;41275;51.912;4.388;2023-04-07T08:49:31;101786.09;;;16.59;46.26
21547;BME280;41275;51.912;4.388;2023-04-07T08:54:53;101797.19;;;16.51;46.40
21547;BME280;41275;51.912;4.388;2023-04-07T09:00:16;101788.50;;;16.44;46.17
21547;BME280;41275;51.912;4.388;2023-04-07T09:05:37;101787.31;;;16.35;46.03
21547;BME280;41275;51.912;4.388;2023-04-07T09:10:59;101800.34;;;16.65;45.87
21547;BME280;41275;51.912;4.388;2023-04-07T09:16:20;101809.47;;;16.69;45.59
21547;BME280;41275;51.912;4.388;2023-04-07T09:21:49;101803.53;;;16.79;44.89
21547;BME280;41275;51.912;4.388;2023-04-07T09:27:16;101808.94;;;16.84;45.27
21547;BME280;41275;51.912;4.388;2023-04-07T09:32:38;101807.16;;;16.89;44.81
21547;BME280;41275;51.912;4.388;2023-04-07T09:38:07;101811.22;;;16.92;44.94
21547;BME280;41275;51.912;4.388;2023-04-07T09:43:29;101806.66;;;16.92;44.67
21547;BME280;41275;51.912;4.388;2023-04-07T09:49:02;101806.41;;;17.50;44.37
21547;BME280;41275;51.912;4.388;2023-04-07T09:59:56;101811.38;;;17.02;44.53
21547;BME280;41275;51.912;4.388;2023-04-07T10:05:18;101818.44;;;16.75;44.57
21547;BME280;41275;51.912;4.388;2023-04-07T10:10:42;101815.09;;;16.67;44.74
21547;BME280;41275;51.912;4.388;2023-04-07T10:16:06;101842.97;;;16.88;44.74
21547;BME280;41275;51.912;4.388;2023-04-07T10:21:27;101829.50;;;16.66;45.31
21547;BME280;41275;51.912;4.388;2023-04-07T10:26:55;101835.41;;;16.68;45.87
21547;BME280;41275;51.912;4.388;2023-04-07T10:32:17;101828.72;;;16.83;45.38
21547;BME280;41275;51.912;4.388;2023-04-07T10:37:39;101834.31;;;16.98;45.87
21547;BME280;41275;51.912;4.388;2023-04-07T10:43:00;101848.47;;;16.82;45.72
21547;BME280;41275;51.912;4.388;2023-04-07T10:48:21;101846.97;;;16.86;45.38
21547;BME280;41275;51.912;4.388;2023-04-07T11:05:31;101846.22;;;16.90;45.31
21547;BME280;41275;51.912;4.388;2023-04-07T11:10:52;101854.88;;;16.98;45.41
21547;BME280;41275;51.912;4.388;2023-04-07T11:16:16;101861.34;;;17.18;45.16
21547;BME280;41275;51.912;4.388;2023-04-07T11:21:37;101860.38;;;17.08;45.08
21547;BME280;41275;51.912;4.388;2023-04-07T11:26:59;101872.59;;;17.21;44.64
21547;BME280;41275;51.912;4.388;2023-04-07T11:32:22;101864.75;;;17.31;44.46
21547;BME280;41275;51.912;4.388;2023-04-07T11:37:45;101872.28;;;17.34;44.18
21547;BME280;41275;51.912;4.388;2023-04-07T11:48:40;101879.09;;;17.63;44.05
21547;BME280;41275;51.912;4.388;2023-04-07T11:54:01;101876.78;;;17.89;43.82
21547;BME280;41275;51.912;4.388;2023-04-07T11:59:24;101882.97;;;17.73;43.31
21547;BME280;41275;51.912;4.388;2023-04-07T12:04:55;101885.56;;;17.67;43.25
21547;BME280;41275;51.912;4.388;2023-04-07T12:10:21;101895.84;;;17.54;42.65
21547;BME280;41275;51.912;4.388;2023-04-07T12:15:43;101891.66;;;17.41;42.60
21547;BME280;41275;51.912;4.388;2023-04-07T12:21:04;101899.25;;;17.49;42.50
21547;BME280;41275;51.912;4.388;2023-04-07T12:26:25;101906.44;;;17.65;42.45
21547;BME280;41275;51.912;4.388;2023-04-07T12:31:47;101913.47;;;17.72;42.13
21547;BME280;41275;51.912;4.388;2023-04-07T12:37:08;101928.44;;;17.51;41.82
21547;BME280;41275;51.912;4.388;2023-04-07T12:42:29;101920.09;;;17.47;41.33
21547;BME280;41275;51.912;4.388;2023-04-07T12:47:50;101930.44;;;17.60;41.72
21547;BME280;41275;51.912;4.388;2023-04-07T12:53:12;101910.84;;;17.55;41.83
21547;BME280;41275;51.912;4.388;2023-04-07T12:58:33;101917.78;;;17.73;41.80
21547;BME280;41275;51.912;4.388;2023-04-07T13:03:54;101918.06;;;17.93;41.56
21547;BME280;41275;51.912;4.388;2023-04-07T13:09:15;101923.50;;;17.98;41.10
21547;BME280;41275;51.912;4.388;2023-04-07T13:14:38;101924.56;;;17.97;41.32
21547;BME280;41275;51.912;4.388;2023-04-07T13:19:59;101927.91;;;18.09;41.35
21547;BME280;41275;51.912;4.388;2023-04-07T13:25:22;101936.44;;;18.06;41.45
21547;BME280;41275;51.912;4.388;2023-04-07T13:30:44;101933.16;;;18.21;40.92
21547;BME280;41275;51.912;4.388;2023-04-07T13:36:05;101938.50;;;18.21;40.79
21547;BME280;41275;51.912;4.388;2023-04-07T13:41:26;101942.34;;;17.86;41.57
21547;BME280;41275;51.912;4.388;2023-04-07T13:46:47;101943.31;;;17.97;41.80
21547;BME280;41275;51.912;4.388;2023-04-07T13:52:08;101939.81;;;17.97;42.20
21547;BME280;41275;51.912;4.388;2023-04-07T13:57:30;101947.66;;;17.81;42.01
21547;BME280;41275;51.912;4.388;2023-04-07T14:02:51;101958.56;;;17.41;42.64
21547;BME280;41275;51.912;4.388;2023-04-07T14:08:13;101948.63;;;17.25;43.58
21547;BME280;41275;51.912;4.388;2023-04-07T14:13:34;101947.13;;;17.46;43.82
21547;BME280;41275;51.912;4.388;2023-04-07T14:18:56;101957.66;;;17.18;43.62
21547;BME280;41275;51.912;4.388;2023-04-07T14:24:18;101951.91;;;17.10;43.80
21547;BME280;41275;51.912;4.388;2023-04-07T14:29:39;101953.84;;;17.14;43.95
21547;BME280;41275;51.912;4.388;2023-04-07T14:35:01;101952.63;;;17.22;44.16
21547;BME280;41275;51.912;4.388;2023-04-07T14:40:22;101955.94;;;17.46;43.95
21547;BME280;41275;51.912;4.388;2023-04-07T14:45:43;101946.19;;;17.40;43.84
21547;BME280;41275;51.912;4.388;2023-04-07T14:51:12;101959.19;;;17.31;43.73
21547;BME280;41275;51.912;4.388;2023-04-07T14:56:33;101966.66;;;17.46;43.54
21547;BME280;41275;51.912;4.388;2023-04-07T15:01:54;101968.34;;;17.52;43.28
21547;BME280;41275;51.912;4.388;2023-04-07T15:07:15;101966.56;;;17.58;43.14
21547;BME280;41275;51.912;4.388;2023-04-07T15:12:37;101974.75;;;17.85;42.81
21547;BME280;41275;51.912;4.388;2023-04-07T15:17:58;101970.38;;;17.62;42.54
21547;BME280;41275;51.912;4.388;2023-04-07T15:23:19;101967.19;;;17.48;42.64
21547;BME280;41275;51.912;4.388;2023-04-07T15:28:40;101972.41;;;17.55;42.93
21547;BME280;41275;51.912;4.388;2023-04-07T15:34:01;101974.19;;;17.49;42.87
21547;BME280;41275;51.912;4.388;2023-04-07T15:39:23;101969.88;;;17.48;42.85
21547;BME280;41275;51.912;4.388;2023-04-07T15:44:44;101967.63;;;17.40;42.91
21547;BME280;41275;51.912;4.388;2023-04-07T15:50:06;101969.63;;;17.16;43.58
21547;BME280;41275;51.912;4.388;2023-04-07T15:55:27;101993.91;;;16.98;43.69
21547;BME280;41275;51.912;4.388;2023-04-07T16:00:48;101986.94;;;16.80;44.17
21547;BME280;41275;51.912;4.388;2023-04-07T16:06:10;101987.19;;;16.78;44.44
21547;BME280;41275;51.912;4.388;2023-04-07T16:11:31;101988.41;;;16.87;44.30
21547;BME280;41275;51.912;4.388;2023-04-07T16:16:52;101998.72;;;17.12;44.14
21547;BME280;41275;51.912;4.388;2023-04-07T16:22:18;101997.38;;;17.27;44.09
21547;BME280;41275;51.912;4.388;2023-04-07T16:27:39;102001.13;;;17.26;44.18
21547;BME280;41275;51.912;4.388;2023-04-07T16:33:00;102004.00;;;17.07;44.46
21547;BME280;41275;51.912;4.388;2023-04-07T16:38:21;102015.91;;;17.00;44.14
21547;BME280;41275;51.912;4.388;2023-04-07T16:43:43;102018.63;;;16.88;44.77
21547;BME280;41275;51.912;4.388;2023-04-07T16:49:04;102015.28;;;16.69;44.52
21547;BME280;41275;51.912;4.388;2023-04-07T16:54:25;102024.84;;;16.65;44.84
21547;BME280;41275;51.912;4.388;2023-04-07T16:59:46;102022.97;;;16.65;44.95
21547;BME280;41275;51.912;4.388;2023-04-07T17:05:08;102028.22;;;16.60;45.36
21547;BME280;41275;51.912;4.388;2023-04-07T17:10:29;102040.09;;;16.53;45.49
21547;BME280;41275;51.912;4.388;2023-04-07T17:15:52;102039.88;;;16.42;45.53
21547;BME280;41275;51.912;4.388;2023-04-07T17:21:13;102045.72;;;16.39;46.16
21547;BME280;41275;51.912;4.388;2023-04-07T17:26:37;102053.94;;;16.38;46.20
21547;BME280;41275;51.912;4.388;2023-04-07T17:31:59;102050.47;;;16.37;46.17
21547;BME280;41275;51.912;4.388;2023-04-07T17:37:20;102061.03;;;16.44;46.36
21547;BME280;41275;51.912;4.388;2023-04-07T17:42:41;102073.94;;;16.24;45.81
21547;BME280;41275;51.912;4.388;2023-04-07T17:48:02;102082.31;;;16.27;46.19
21547;BME280;41275;51.912;4.388;2023-04-07T17:53:24;102091.50;;;16.19;46.64
21547;BME280;41275;51.912;4.388;2023-04-07T17:58:46;102090.53;;;16.14;46.43
21547;BME280;41275;51.912;4.388;2023-04-07T18:04:07;102093.09;;;16.09;46.95
21547;BME280;41275;51.912;4.388;2023-04-07T18:09:28;102096.34;;;15.99;46.72
21547;BME280;41275;51.912;4.388;2023-04-07T18:14:49;102090.78;;;15.89;47.17
21547;BME280;41275;51.912;4.388;2023-04-07T18:20:11;102099.84;;;15.88;47.81
21547;BME280;41275;51.912;4.388;2023-04-07T18:25:33;102104.91;;;15.78;47.45
21547;BME280;41275;51.912;4.388;2023-04-07T18:31:02;102114.44;;;15.85;48.08
21547;BME280;41275;51.912;4.388;2023-04-07T18:36:24;102122.94;;;15.94;48.04
21547;BME280;41275;51.912;4.388;2023-04-07T18:41:47;102132.00;;;16.05;48.09
21547;BME280;41275;51.912;4.388;2023-04-07T18:47:08;102140.91;;;15.99;48.23
21547;BME280;41275;51.912;4.388;2023-04-07T18:52:29;102130.91;;;15.82;48.32
21547;BME280;41275;51.912;4.388;2023-04-07T18:57:50;102154.75;;;15.95;48.44
21547;BME280;41275;51.912;4.388;2023-04-07T19:03:12;102157.50;;;15.89;48.42
21547;BME280;41275;51.912;4.388;2023-04-07T19:08:34;102159.13;;;15.90;48.69
21547;BME280;41275;51.912;4.388;2023-04-07T19:13:56;102170.50;;;15.85;48.78
21547;BME280;41275;51.912;4.388;2023-04-07T19:19:17;102177.69;;;15.85;48.86
21547;BME280;41275;51.912;4.388;2023-04-07T19:24:38;102179.56;;;15.84;48.73
21547;BME280;41275;51.912;4.388;2023-04-07T19:30:00;102183.75;;;15.92;48.57
21547;BME280;41275;51.912;4.388;2023-04-07T19:35:21;102174.09;;;15.91;48.81
21547;BME280;41275;51.912;4.388;2023-04-07T19:40:42;102181.88;;;15.81;48.87
21547;BME280;41275;51.912;4.388;2023-04-07T19:46:04;102185.91;;;15.83;49.07
21547;BME280;41275;51.912;4.388;2023-04-07T19:51:26;102188.09;;;15.75;49.06
21547;BME280;41275;51.912;4.388;2023-04-07T19:56:47;102198.22;;;15.73;49.69
21547;BME280;41275;51.912;4.388;2023-04-07T20:02:08;102194.41;;;15.62;49.53
21547;BME280;41275;51.912;4.388;2023-04-07T20:07:30;102193.16;;;15.64;49.77
21547;BME280;41275;51.912;4.388;2023-04-07T20:12:51;102199.69;;;15.68;50.06
21547;BME280;41275;51.912;4.388;2023-04-07T20:18:13;102200.41;;;15.76;49.70
21547;BME280;41275;51.912;4.388;2023-04-07T20:23:36;102203.91;;;15.76;50.15
21547;BME280;41275;51.912;4.388;2023-04-07T20:28:58;102198.41;;;15.71;49.83
21547;BME280;41275;51.912;4.388;2023-04-07T20:34:19;102209.09;;;15.71;50.16
21547;BME280;41275;51.912;4.388;2023-04-07T20:39:41;102212.72;;;15.77;50.08
21547;BME280;41275;51.912;4.388;2023-04-07T20:45:03;102212.81;;;15.70;49.92
21547;BME280;41275;51.912;4.388;2023-04-07T20:50:26;102214.91;;;15.68;49.89
21547;BME280;41275;51.912;4.388;2023-04-07T20:55:48;102213.09;;;15.62;50.24
21547;BME280;41275;51.912;4.388;2023-04-07T21:01:09;102220.75;;;15.58;50.64
21547;BME280;41275;51.912;4.388;2023-04-07T21:06:30;102222.97;;;15.61;50.69
21547;BME280;41275;51.912;4.388;2023-04-07T21:11:51;102224.75;;;15.67;50.31
21547;BME280;41275;51.912;4.388;2023-04-07T21:17:13;102230.22;;;15.73;50.71
21547;BME280;41275;51.912;4.388;2023-04-07T21:22:34;102242.41;;;15.68;50.84
21547;BME280;41275;51.912;4.388;2023-04-07T21:27:55;102239.38;;;15.65;50.51
21547;BME280;41275;51.912;4.388;2023-04-07T21:33:17;102232.00;;;15.60;50.62
21547;BME280;41275;51.912;4.388;2023-04-07T21:38:38;102235.84;;;15.64;50.74
21547;BME280;41275;51.912;4.388;2023-04-07T21:43:59;102228.00;;;15.69;50.55
21547;BME280;41275;51.912;4.388;2023-04-07T21:49:21;102232.91;;;15.73;50.95
21547;BME280;41275;51.912;4.388;2023-04-07T21:54:42;102219.47;;;15.61;50.95
21547;BME280;41275;51.912;4.388;2023-04-07T22:00:05;102236.31;;;15.61;50.82
21547;BME280;41275;51.912;4.388;2023-04-07T22:05:27;102245.28;;;15.67;51.01
21547;BME280;41275;51.912;4.388;2023-04-07T22:10:48;102236.03;;;15.69;50.77
21547;BME280;41275;51.912;4.388;2023-04-07T22:16:10;102246.47;;;15.71;51.24
21547;BME280;41275;51.912;4.388;2023-04-07T22:21:32;102244.88;;;15.82;50.74
21547;BME280;41275;51.912;4.388;2023-04-07T22:26:53;102248.38;;;15.82;50.97
21547;BME280;41275;51.912;4.388;2023-04-07T22:32:15;102248.84;;;15.91;50.95
21547;BME280;41275;51.912;4.388;2023-04-07T22:37:36;102245.97;;;15.92;50.26
21547;BME280;41275;51.912;4.388;2023-04-07T22:42:57;102249.00;;;15.96;50.40
21547;BME280;41275;51.912;4.388;2023-04-07T22:48:18;102256.41;;;15.94;51.00
21547;BME280;41275;51.912;4.388;2023-04-07T22:53:40;102257.00;;;15.96;51.11
21547;BME280;41275;51.912;4.388;2023-04-07T22:59:01;102262.72;;;16.00;50.66
21547;BME280;41275;51.912;4.388;2023-04-07T23:04:25;102264.91;;;16.03;50.65
21547;BME280;41275;51.912;4.388;2023-04-07T23:09:47;102267.00;;;16.01;50.77
21547;BME280;41275;51.912;4.388;2023-04-07T23:15:08;102278.41;;;16.08;50.73
21547;BME280;41275;51.912;4.388;2023-04-07T23:20:29;102272.84;;;16.09;50.10
21547;BME280;41275;51.912;4.388;2023-04-07T23:25:51;102280.56;;;15.99;50.59
21547;BME280;41275;51.912;4.388;2023-04-07T23:31:12;102285.78;;;15.94;50.51
21547;BME280;41275;51.912;4.388;2023-04-07T23:36:33;102277.84;;;15.87;50.84
21547;BME280;41275;51.912;4.388;2023-04-07T23:41:54;102280.06;;;15.90;50.74
21547;BME280;41275;51.912;4.388;2023-04-07T23:47:15;102283.13;;;15.94;51.33
21547;BME280;41275;51.912;4.388;2023-04-07T23:52:37;102291.94;;;15.94;50.90
21547;BME280;41275;51.912;4.388;2023-04-07T23:57:58;102285.38;;;16.09;50.83
